Time;durP1;ratioP1;P1;durP2;ratioP2;P2;SDS_P1;SDS_P2;PMS_P1;PMS_P2;Temp;Humidity;BMP_temperature;BMP_pressure;BME280_temperature;BME280_humidity;BME280_pressure;Samples;Min_cycle;Max_cycle;Signal;HPM_P1;HPM_P2
2023/10/03 00:02:06;;;;;;;39.75;7.75;;;;;;;;;;6084887;23;20030;-51
2023/10/03 00:04:55;;;;;;;39.88;6.97;;;;;;;;;;6085503;23;20026;-48
2023/10/03 00:07:47;;;;;;;44.58;7.57;;;;;;;;;;6086323;23;20749;-48
2023/10/03 00:10:38;;;;;;;38.40;7.50;;;;;;;;;;6085833;23;20030;-57
2023/10/03 00:13:31;;;;;;;41.72;8.10;;;;;;;;;;6086702;23;20027;-68
2023/10/03 00:16:17;;;;;;;40.50;7.40;;;;;;;;;;6081805;23;20074;-72
2023/10/03 00:19:16;;;;;;;32.67;6.63;;;;;;;;;;6056858;23;20107;-71
2023/10/03 00:22:04;;;;;;;40.10;7.13;;;;;;;;;;6048806;23;20029;-71
2023/10/03 00:24:59;;;;;;;48.28;7.40;;;;;;;;;;6056155;23;20082;-71
2023/10/03 00:27:46;;;;;;;48.03;7.72;;;;;;;;;;6056535;23;20497;-57
2023/10/03 00:30:40;;;;;;;36.58;6.85;;;;;;;;;;6057050;23;20022;-55
2023/10/03 00:33:27;;;;;;;29.88;6.40;;;;;;;;;;6055860;23;20031;-54
2023/10/03 00:36:25;;;;;;;42.38;6.53;;;;;;;;;;6054404;23;20023;-53
2023/10/03 00:39:11;;;;;;;40.40;6.85;;;;;;;;;;6057176;23;20106;-53
2023/10/03 00:42:05;;;;;;;52.53;8.32;;;;;;;;;;6057180;23;20496;-57
2023/10/03 00:44:52;;;;;;;33.67;6.28;;;;;;;;;;6059052;23;20022;-55
2023/10/03 00:47:48;;;;;;;36.13;6.78;;;;;;;;;;6056321;23;20193;-54
2023/10/03 00:50:34;;;;;;;40.25;7.15;;;;;;;;;;6056941;23;20098;-54
2023/10/03 00:53:28;;;;;;;36.38;7.35;;;;;;;;;;6057934;23;20027;-51
2023/10/03 00:56:15;;;;;;;41.10;6.50;;;;;;;;;;6057993;23;20052;-53
2023/10/03 00:59:10;;;;;;;44.92;7.32;;;;;;;;;;6058052;23;20038;-55
2023/10/03 01:02:03;;;;;;;37.58;6.97;;;;;;;;;;6055674;23;20027;-55
2023/10/03 01:04:53;;;;;;;25.92;5.57;;;;;;;;;;6056359;23;20465;-56
2023/10/03 01:07:39;;;;;;;43.03;6.60;;;;;;;;;;6059001;23;20023;-63
2023/10/03 01:10:33;;;;;;;43.13;6.35;;;;;;;;;;6058363;23;20030;-62
2023/10/03 01:13:20;;;;;;;32.67;6.90;;;;;;;;;;6059036;23;20022;-63
2023/10/03 01:16:20;;;;;;;26.02;5.43;;;;;;;;;;6057115;23;20031;-63
2023/10/03 01:19:14;;;;;;;33.25;5.78;;;;;;;;;;6028939;23;20066;-63
2023/10/03 01:22:02;;;;;;;40.33;6.45;;;;;;;;;;6029453;23;20027;-58
2023/10/03 01:24:50;;;;;;;33.58;5.95;;;;;;;;;;6028209;23;20121;-52
2023/10/03 01:27:43;;;;;;;35.40;5.60;;;;;;;;;;6026666;23;20475;-55
2023/10/03 01:30:30;;;;;;;37.95;6.53;;;;;;;;;;6024033;23;20090;-54
2023/10/03 01:33:28;;;;;;;39.88;7.13;;;;;;;;;;6027690;23;20023;-56
2023/10/03 01:36:15;;;;;;;35.17;5.80;;;;;;;;;;6027231;23;20035;-53
2023/10/03 01:39:11;;;;;;;36.65;5.90;;;;;;;;;;6027120;23;20505;-56
2023/10/03 01:41:56;;;;;;;43.85;6.20;;;;;;;;;;6028224;23;20810;-58
2023/10/03 01:44:53;;;;;;;37.83;5.95;;;;;;;;;;6029873;23;20023;-57
2023/10/03 01:47:42;;;;;;;23.63;5.07;;;;;;;;;;6028066;23;20031;-55
2023/10/03 01:50:35;;;;;;;29.95;5.28;;;;;;;;;;6030703;23;20066;-52
2023/10/03 01:53:23;;;;;;;27.30;5.22;;;;;;;;;;6027603;23;20034;-54
2023/10/03 01:56:16;;;;;;;34.35;5.50;;;;;;;;;;6028834;23;20023;-55
2023/10/03 01:59:04;;;;;;;31.38;5.80;;;;;;;;;;6029967;23;20027;-69
2023/10/03 02:01:57;;;;;;;45.80;5.82;;;;;;;;;;6029304;23;20042;-58
2023/10/03 02:04:45;;;;;;;25.75;5.40;;;;;;;;;;6047676;23;20019;-57
2023/10/03 02:07:39;;;;;;;29.60;5.40;;;;;;;;;;6029658;23;20079;-57
2023/10/03 02:10:26;;;;;;;30.48;5.13;;;;;;;;;;6028004;23;20106;-58
2023/10/03 02:13:21;;;;;;;34.85;5.15;;;;;;;;;;6019839;23;20023;-58
2023/10/03 02:16:10;;;;;;;23.67;5.25;;;;;;;;;;6024753;23;20039;-58
2023/10/03 02:19:07;;;;;;;36.50;5.10;;;;;;;;;;6050933;23;20059;-54
2023/10/03 02:21:59;;;;;;;32.38;5.38;;;;;;;;;;6047142;23;20098;-46
2023/10/03 02:24:49;;;;;;;31.55;5.05;;;;;;;;;;6053716;23;20321;-44
2023/10/03 02:27:42;;;;;;;27.75;5.03;;;;;;;;;;6051379;23;20106;-48
2023/10/03 02:30:30;;;;;;;31.65;4.75;;;;;;;;;;6050428;23;20074;-46
2023/10/03 02:33:24;;;;;;;21.63;4.70;;;;;;;;;;6048914;23;20038;-48
2023/10/03 02:36:19;;;;;;;33.70;4.30;;;;;;;;;;6050811;23;20030;-63
2023/10/03 02:39:07;;;;;;;29.60;4.57;;;;;;;;;;6050630;23;20030;-69
2023/10/03 02:42:05;;;;;;;34.03;5.57;;;;;;;;;;6051887;23;20477;-68
2023/10/03 02:44:47;;;;;;;34.65;5.20;;;;;;;;;;6052006;23;20448;-69
2023/10/03 02:47:41;;;;;;;37.00;5.53;;;;;;;;;;6047048;23;20129;-69
2023/10/03 02:50:35;;;;;;;36.15;5.10;;;;;;;;;;6050133;23;20023;-69
2023/10/03 02:53:22;;;;;;;31.60;5.13;;;;;;;;;;6053911;23;20022;-69
2023/10/03 02:56:17;;;;;;;34.30;5.30;;;;;;;;;;6049832;23;20075;-58
2023/10/03 02:59:06;;;;;;;29.67;4.95;;;;;;;;;;6049719;23;20035;-44
2023/10/03 03:01:59;;;;;;;32.40;4.85;;;;;;;;;;6049696;23;20426;-46
2023/10/03 03:04:54;;;;;;;32.28;5.68;;;;;;;;;;6052520;23;20062;-46
2023/10/03 03:07:47;;;;;;;32.60;5.40;;;;;;;;;;6050454;23;20027;-45
2023/10/03 03:10:41;;;;;;;31.52;5.18;;;;;;;;;;6052671;23;20026;-50
2023/10/03 03:13:35;;;;;;;25.83;4.72;;;;;;;;;;6048042;23;20106;-49
2023/10/03 03:16:23;;;;;;;32.72;5.28;;;;;;;;;;6050245;23;20148;-56
2023/10/03 03:19:23;;;;;;;30.92;5.03;;;;;;;;;;6021113;23;20053;-55
2023/10/03 03:22:11;;;;;;;20.52;4.22;;;;;;;;;;6021915;23;20549;-53
2023/10/03 03:25:05;;;;;;;36.92;5.53;;;;;;;;;;6025635;23;20035;-53
2023/10/03 03:27:55;;;;;;;28.52;4.78;;;;;;;;;;6019308;23;20737;-51
2023/10/03 03:30:56;;;;;;;25.40;4.35;;;;;;;;;;6022052;23;20298;-70
2023/10/03 03:33:36;;;;;;;30.50;5.07;;;;;;;;;;6018994;23;20102;-59
2023/10/03 03:36:32;;;;;;;22.35;4.25;;;;;;;;;;6019425;23;20031;-59
2023/10/03 03:39:20;;;;;;;26.23;4.28;;;;;;;;;;6021647;23;20090;-58
2023/10/03 03:42:12;;;;;;;28.50;3.65;;;;;;;;;;6023778;23;20031;-58
2023/10/03 03:44:59;;;;;;;23.60;4.07;;;;;;;;;;6022552;23;20027;-58
2023/10/03 03:47:54;;;;;;;28.30;4.32;;;;;;;;;;6017543;23;20873;-58
2023/10/03 03:50:41;;;;;;;29.23;4.45;;;;;;;;;;6022172;23;20080;-46
2023/10/03 03:53:35;;;;;;;26.33;4.97;;;;;;;;;;6022112;23;20052;-57
2023/10/03 03:56:22;;;;;;;25.73;4.45;;;;;;;;;;6021434;23;20035;-56
2023/10/03 03:59:22;;;;;;;20.98;3.97;;;;;;;;;;6022059;23;20031;-52
2023/10/03 04:02:10;;;;;;;21.05;4.07;;;;;;;;;;6021860;23;20031;-58
2023/10/03 04:05:12;;;;;;;22.58;4.47;;;;;;;;;;6026702;23;20122;-54
2023/10/03 04:07:53;;;;;;;19.52;3.97;;;;;;;;;;6027913;23;20086;-48
2023/10/03 04:10:46;;;;;;;21.13;4.03;;;;;;;;;;6029210;23;20098;-52
2023/10/03 04:13:39;;;;;;;22.60;4.60;;;;;;;;;;6024623;23;20474;-54
2023/10/03 04:16:38;;;;;;;23.90;4.18;;;;;;;;;;6024394;23;20023;-52
2023/10/03 04:19:23;;;;;;;22.45;3.67;;;;;;;;;;6021938;23;20103;-55
2023/10/03 04:22:17;;;;;;;;;;;;;;;;;;6023798;23;20090;-52
2023/10/03 04:25:04;;;;;;;23.95;3.85;;;;;;;;;;6023724;23;20396;-57
2023/10/03 04:27:58;;;;;;;21.63;3.80;;;;;;;;;;6024839;23;20419;-55
2023/10/03 04:30:49;;;;;;;32.20;4.78;;;;;;;;;;6025801;23;20414;-57
2023/10/03 04:33:44;;;;;;;15.73;3.88;;;;;;;;;;6020352;23;20027;-55
2023/10/03 04:36:29;;;;;;;24.42;4.05;;;;;;;;;;6023420;23;20033;-57
2023/10/03 04:39:23;;;;;;;22.63;4.50;;;;;;;;;;6024663;23;20062;-55
2023/10/03 04:42:10;;;;;;;23.55;4.25;;;;;;;;;;6022997;23;20027;-57
2023/10/03 04:45:05;;;;;;;19.42;4.05;;;;;;;;;;6020978;23;20065;-59
2023/10/03 04:47:52;;;;;;;18.63;4.22;;;;;;;;;;6018893;23;20625;-53
2023/10/03 04:50:46;;;;;;;24.02;3.85;;;;;;;;;;6021765;23;20026;-54
2023/10/03 04:53:17;;;;;;;19.83;3.70;;;;;;;;;;6020964;23;20564;-53
2023/10/03 04:56:11;;;;;;;19.50;4.05;;;;;;;;;;6019475;23;20678;-54
2023/10/03 04:59:00;;;;;;;21.05;3.75;;;;;;;;;;6019701;23;20095;-53
2023/10/03 05:01:52;;;;;;;19.40;4.07;;;;;;;;;;6018558;23;20102;-52
2023/10/03 05:04:40;;;;;;;20.48;3.88;;;;;;;;;;6025509;23;20095;-60
2023/10/03 05:07:33;;;;;;;24.67;4.38;;;;;;;;;;6024289;23;20031;-59
2023/10/03 05:10:21;;;;;;;19.92;4.40;;;;;;;;;;6023300;23;20027;-59
2023/10/03 05:13:16;;;;;;;19.67;3.90;;;;;;;;;;6025425;23;20035;-57
2023/10/03 05:16:02;;;;;;;22.83;3.90;;;;;;;;;;6022711;23;20348;-58
2023/10/03 05:19:04;;;;;;;20.35;3.83;;;;;;;;;;6073942;23;20611;-59
2023/10/03 05:21:50;;;;;;;25.35;3.67;;;;;;;;;;6082484;23;20022;-66
2023/10/03 05:24:44;;;;;;;21.95;4.03;;;;;;;;;;6081518;23;20094;-54
2023/10/03 05:27:32;;;;;;;17.27;3.50;;;;;;;;;;6083020;23;20085;-54
2023/10/03 05:30:25;;;;;;;19.45;3.17;;;;;;;;;;6081501;23;20030;-51
2023/10/03 05:33:22;;;;;;;14.02;3.15;;;;;;;;;;6083517;23;20069;-55
2023/10/03 05:36:18;;;;;;;21.45;3.65;;;;;;;;;;6079314;23;20241;-56
2023/10/03 05:39:06;;;;;;;18.20;3.40;;;;;;;;;;6080075;23;20029;-57
2023/10/03 05:42:00;;;;;;;20.25;3.17;;;;;;;;;;6081389;23;20030;-65
2023/10/03 05:44:46;;;;;;;14.13;2.83;;;;;;;;;;6081620;23;20050;-59
2023/10/03 05:47:44;;;;;;;14.02;3.03;;;;;;;;;;6081891;23;20101;-60
2023/10/03 05:50:28;;;;;;;11.77;3.40;;;;;;;;;;6082182;23;20030;-60
2023/10/03 05:53:22;;;;;;;21.85;3.20;;;;;;;;;;6081645;23;20532;-59
2023/10/03 05:56:12;;;;;;;16.58;3.03;;;;;;;;;;6081843;23;20161;-59
2023/10/03 05:59:08;;;;;;;11.65;2.92;;;;;;;;;;6081393;23;20473;-49
2023/10/03 06:01:53;;;;;;;14.38;2.83;;;;;;;;;;6078462;23;20082;-59
2023/10/03 06:04:47;;;;;;;17.52;3.80;;;;;;;;;;6080485;23;20090;-59
2023/10/03 06:07:34;;;;;;;22.73;3.42;;;;;;;;;;6083571;23;20027;-59
2023/10/03 06:10:29;;;;;;;17.33;4.07;;;;;;;;;;6081654;23;20476;-59
2023/10/03 06:13:16;;;;;;;17.75;3.55;;;;;;;;;;6081211;23;20030;-60
2023/10/03 06:16:12;;;;;;;14.18;3.40;;;;;;;;;;6081205;23;20030;-49
2023/10/03 06:19:04;;;;;;;15.80;3.15;;;;;;;;;;6078477;23;20037;-50
2023/10/03 06:21:58;;;;;;;12.27;3.50;;;;;;;;;;6078613;23;20022;-51
2023/10/03 06:24:46;;;;;;;24.15;4.25;;;;;;;;;;6082020;23;20627;-53
2023/10/03 06:27:40;;;;;;;17.65;5.03;;;;;;;;;;6080069;23;20030;-52
2023/10/03 06:30:27;;;;;;;18.10;4.60;;;;;;;;;;6080743;23;20030;-50
2023/10/03 06:33:21;;;;;;;15.77;4.32;;;;;;;;;;6078076;23;20201;-50
2023/10/03 06:36:16;;;;;;;28.92;4.90;;;;;;;;;;6079902;23;20042;-59
2023/10/03 06:39:05;;;;;;;21.17;4.32;;;;;;;;;;6076906;23;20027;-60
2023/10/03 06:41:56;;;;;;;17.13;4.03;;;;;;;;;;6080468;23;20532;-60
2023/10/03 06:44:50;;;;;;;14.40;3.20;;;;;;;;;;6083159;23;20034;-60
2023/10/03 06:47:45;;;;;;;18.70;3.50;;;;;;;;;;6078062;23;20034;-59
2023/10/03 06:50:32;;;;;;;12.75;4.30;;;;;;;;;;6080911;23;20034;-60
2023/10/03 06:53:26;;;;;;;19.15;4.05;;;;;;;;;;6078962;23;20026;-65
2023/10/03 06:56:14;;;;;;;21.10;4.20;;;;;;;;;;6078235;23;20026;-63
2023/10/03 06:59:10;;;;;;;20.42;4.30;;;;;;;;;;6081495;23;20034;-62
2023/10/03 07:01:56;;;;;;;19.50;4.07;;;;;;;;;;6079637;23;20029;-63
2023/10/03 07:04:50;;;;;;;14.27;3.65;;;;;;;;;;6078951;23;20102;-63
2023/10/03 07:07:37;;;;;;;11.80;3.30;;;;;;;;;;6078464;23;20022;-63
2023/10/03 07:10:32;;;;;;;20.38;4.25;;;;;;;;;;6080256;23;20030;-63
2023/10/03 07:13:26;;;;;;;19.70;4.00;;;;;;;;;;6081471;23;20346;-65
2023/10/03 07:16:20;;;;;;;15.57;3.67;;;;;;;;;;6079868;23;20044;-63
2023/10/03 07:19:15;;;;;;;16.80;3.78;;;;;;;;;;6077881;23;20026;-64
2023/10/03 07:22:10;;;;;;;15.88;3.85;;;;;;;;;;6079144;23;20034;-63
2023/10/03 07:25:06;;;;;;;16.45;4.05;;;;;;;;;;6081818;23;20420;-63
2023/10/03 07:27:57;;;;;;;14.25;3.67;;;;;;;;;;6080510;23;20029;-63
2023/10/03 07:30:45;;;;;;;16.60;3.42;;;;;;;;;;6081766;23;20024;-60
2023/10/03 07:33:38;;;;;;;17.33;3.40;;;;;;;;;;6083181;23;20023;-59
2023/10/03 07:36:33;;;;;;;16.08;4.35;;;;;;;;;;6078023;23;20393;-60
2023/10/03 07:39:21;;;;;;;15.70;4.30;;;;;;;;;;6082039;23;20030;-60
2023/10/03 07:42:14;;;;;;;14.13;3.50;;;;;;;;;;6083687;23;20086;-60
2023/10/03 07:45:00;;;;;;;15.60;3.70;;;;;;;;;;6081598;23;20022;-60
2023/10/03 07:47:55;;;;;;;15.40;3.75;;;;;;;;;;6083639;23;20254;-60
2023/10/03 07:50:43;;;;;;;10.15;3.28;;;;;;;;;;6082743;23;20032;-66
2023/10/03 07:53:36;;;;;;;11.43;3.35;;;;;;;;;;6083376;23;20022;-54
2023/10/03 07:56:25;;;;;;;12.48;3.90;;;;;;;;;;6084212;23;20111;-53
2023/10/03 07:59:18;;;;;;;11.40;2.95;;;;;;;;;;6082118;23;20069;-50
2023/10/03 08:02:10;;;;;;;10.15;3.03;;;;;;;;;;6083738;23;20022;-50
2023/10/03 08:05:00;;;;;;;8.98;3.03;;;;;;;;;;6084150;23;20069;-51
2023/10/03 08:07:50;;;;;;;11.20;2.90;;;;;;;;;;6080756;23;20626;-60
2023/10/03 08:10:48;;;;;;;10.63;3.40;;;;;;;;;;6083203;23;20030;-59
2023/10/03 08:13:38;;;;;;;10.35;3.40;;;;;;;;;;6082464;23;20045;-59
2023/10/03 08:16:34;;;;;;;10.65;2.67;;;;;;;;;;6081216;23;20081;-59
2023/10/03 08:19:27;;;;;;;11.27;3.85;;;;;;;;;;6081114;23;20072;-59
2023/10/03 08:22:21;;;;;;;14.25;2.67;;;;;;;;;;6081130;23;20030;-60
2023/10/03 08:25:09;;;;;;;9.57;2.55;;;;;;;;;;6084297;23;20358;-51
2023/10/03 08:28:09;;;;;;;10.52;3.35;;;;;;;;;;6084967;23;20045;-59
2023/10/03 08:30:50;;;;;;;6.25;2.75;;;;;;;;;;6083264;23;20081;-59
2023/10/03 08:33:45;;;;;;;9.02;3.53;;;;;;;;;;6081725;23;20027;-58
2023/10/03 08:36:37;;;;;;;8.70;2.80;;;;;;;;;;6081315;23;20045;-58
2023/10/03 08:39:34;;;;;;;8.23;2.67;;;;;;;;;;6081826;23;20037;-59
2023/10/03 08:42:27;;;;;;;10.02;3.28;;;;;;;;;;6080237;23;20026;-59
2023/10/03 08:45:16;;;;;;;7.28;2.72;;;;;;;;;;6080172;23;20030;-61
2023/10/03 08:48:06;;;;;;;10.48;3.40;;;;;;;;;;6084737;23;20338;-58
2023/10/03 08:51:03;;;;;;;11.77;3.22;;;;;;;;;;6078416;23;20123;-59
2023/10/03 08:53:49;;;;;;;9.60;3.00;;;;;;;;;;6081164;23;20105;-58
2023/10/03 08:56:44;;;;;;;12.48;3.45;;;;;;;;;;6083684;23;20094;-57
2023/10/03 08:59:31;;;;;;;8.45;3.70;;;;;;;;;;6081820;23;20402;-59
2023/10/03 09:02:25;;;;;;;11.05;3.00;;;;;;;;;;6078551;23;20049;-56
2023/10/03 09:05:19;;;;;;;8.77;3.03;;;;;;;;;;6082924;23;20022;-60
2023/10/03 09:08:14;;;;;;;7.00;3.13;;;;;;;;;;6082075;23;20109;-60
2023/10/03 09:11:01;;;;;;;11.25;3.67;;;;;;;;;;6083831;23;20034;-61
2023/10/03 09:13:59;;;;;;;10.32;2.80;;;;;;;;;;6083053;23;20030;-61
2023/10/03 09:16:42;;;;;;;9.43;3.75;;;;;;;;;;6083935;23;20094;-61
2023/10/03 09:19:50;;;;;;;7.50;3.50;;;;;;;;;;6082016;23;20564;-57
2023/10/03 09:22:38;;;;;;;9.82;4.00;;;;;;;;;;6080887;23;20026;-64
2023/10/03 09:25:30;;;;;;;9.32;3.45;;;;;;;;;;6082338;23;20026;-55
2023/10/03 09:28:17;;;;;;;11.15;3.40;;;;;;;;;;6083532;23;20094;-53
2023/10/03 09:31:11;;;;;;;11.68;3.53;;;;;;;;;;6082471;23;20027;-53
2023/10/03 09:34:01;;;;;;;8.52;3.17;;;;;;;;;;6084898;23;20025;-50
2023/10/03 09:36:52;;;;;;;8.80;3.13;;;;;;;;;;6079496;23;20030;-50
2023/10/03 09:39:49;;;;;;;7.18;2.97;;;;;;;;;;6080196;23;20027;-60
2023/10/03 09:42:51;;;;;;;10.65;3.33;;;;;;;;;;6083314;23;20068;-52
2023/10/03 09:45:38;;;;;;;9.85;3.53;;;;;;;;;;6078390;23;20046;-49
2023/10/03 09:48:32;;;;;;;8.50;3.10;;;;;;;;;;6075721;23;20022;-54
2023/10/03 09:51:21;;;;;;;9.13;3.40;;;;;;;;;;6078200;23;20464;-52
2023/10/03 09:54:24;;;;;;;13.43;3.55;;;;;;;;;;6080189;23;20038;-52
2023/10/03 09:57:16;;;;;;;10.80;3.35;;;;;;;;;;6082719;23;20026;-59
2023/10/03 10:00:23;;;;;;;11.23;3.53;;;;;;;;;;6079705;23;20026;-59
2023/10/03 10:03:03;;;;;;;13.07;3.20;;;;;;;;;;6079085;23;20070;-59
2023/10/03 10:06:22;;;;;;;10.82;3.58;;;;;;;;;;6082203;23;20756;-57
2023/10/03 10:09:23;;;;;;;10.00;3.40;;;;;;;;;;6083102;23;20026;-60
2023/10/03 10:12:09;;;;;;;7.45;3.28;;;;;;;;;;6085048;23;20026;-59
2023/10/03 10:15:00;;;;;;;8.85;3.92;;;;;;;;;;6079474;23;20422;-49
2023/10/03 10:18:10;;;;;;;8.02;3.50;;;;;;;;;;6080847;23;20026;-59
2023/10/03 10:21:19;;;;;;;9.43;3.95;;;;;;;;;;6081248;23;20050;-59
2023/10/03 10:24:16;;;;;;;12.77;3.72;;;;;;;;;;6081877;23;20022;-60
2023/10/03 10:27:19;;;;;;;13.35;3.97;;;;;;;;;;6082611;23;20030;-59
2023/10/03 10:30:13;;;;;;;7.85;3.58;;;;;;;;;;6085399;23;20046;-59
2023/10/03 10:33:18;;;;;;;9.05;3.08;;;;;;;;;;6082085;23;20077;-58
2023/10/03 10:36:10;;;;;;;6.75;3.38;;;;;;;;;;6077964;23;20110;-63
2023/10/03 10:39:03;;;;;;;8.40;3.63;;;;;;;;;;6080781;23;20085;-64
2023/10/03 10:42:14;;;;;;;10.10;4.32;;;;;;;;;;6081923;23;20026;-64
2023/10/03 10:45:14;;;;;;;15.13;4.07;;;;;;;;;;6078517;23;20030;-63
2023/10/03 10:48:08;;;;;;;9.85;3.83;;;;;;;;;;6078350;23;20104;-64
2023/10/03 10:51:05;;;;;;;9.23;3.17;;;;;;;;;;6080826;23;20481;-64
2023/10/03 10:53:58;;;;;;;12.48;3.90;;;;;;;;;;6084951;23;20046;-64
2023/10/03 10:56:45;;;;;;;8.95;4.03;;;;;;;;;;6084128;23;20407;-64
2023/10/03 10:59:43;;;;;;;9.45;4.15;;;;;;;;;;6082417;23;20824;-64
2023/10/03 11:02:33;;;;;;;12.27;4.13;;;;;;;;;;6083077;23;20781;-63
2023/10/03 11:05:25;;;;;;;7.68;3.20;;;;;;;;;;6079770;23;20045;-64
2023/10/03 11:08:10;;;;;;;7.45;3.50;;;;;;;;;;6081139;23;20030;-64
2023/10/03 11:11:04;;;;;;;9.70;3.53;;;;;;;;;;6079661;23;20472;-59
2023/10/03 11:13:58;;;;;;;7.35;3.05;;;;;;;;;;6082327;23;20019;-60
2023/10/03 11:16:45;;;;;;;7.20;3.17;;;;;;;;;;6078790;23;20444;-59
2023/10/03 11:19:46;;;;;;;10.88;3.67;;;;;;;;;;6077012;23;20030;-63
2023/10/03 11:22:15;;;;;;;12.10;3.75;;;;;;;;;;6077672;23;20026;-59
2023/10/03 11:25:09;;;;;;;9.23;3.30;;;;;;;;;;6080629;23;20027;-59
2023/10/03 11:28:05;;;;;;;15.52;3.92;;;;;;;;;;6078299;23;20026;-59
2023/10/03 11:31:06;;;;;;;7.70;3.17;;;;;;;;;;6078278;23;20490;-60
2023/10/03 11:33:59;;;;;;;8.32;3.08;;;;;;;;;;6080948;23;20023;-66
2023/10/03 11:36:47;;;;;;;7.68;3.35;;;;;;;;;;6078187;23;20094;-66
2023/10/03 11:39:43;;;;;;;8.45;3.65;;;;;;;;;;6079859;23;20030;-65
2023/10/03 11:42:28;;;;;;;9.60;3.13;;;;;;;;;;6083526;23;20077;-65
2023/10/03 11:45:23;;;;;;;8.52;3.42;;;;;;;;;;6074868;23;20037;-65
2023/10/03 11:48:22;;;;;;;5.35;2.63;;;;;;;;;;6076613;23;20481;-60
2023/10/03 11:51:14;;;;;;;7.32;3.03;;;;;;;;;;6082715;23;20469;-64
2023/10/03 11:53:43;;;;;;;7.82;3.00;;;;;;;;;;6083279;23;20048;-64
2023/10/03 11:56:43;;;;;;;11.00;3.30;;;;;;;;;;6075804;23;20094;-63
2023/10/03 11:59:30;;;;;;;7.68;2.85;;;;;;;;;;6079380;23;20681;-63
2023/10/03 12:02:24;;;;;;;9.98;3.28;;;;;;;;;;6083050;23;20032;-63
2023/10/03 12:05:16;;;;;;;7.80;3.75;;;;;;;;;;6081725;23;20082;-52
2023/10/03 12:08:10;;;;;;;11.07;3.72;;;;;;;;;;6080303;23;20847;-60
2023/10/03 12:10:57;;;;;;;12.95;3.45;;;;;;;;;;6080141;23;20023;-60
2023/10/03 12:13:50;;;;;;;10.18;3.38;;;;;;;;;;6082674;23;20085;-60
2023/10/03 12:16:41;;;;;;;9.43;3.65;;;;;;;;;;6078530;23;20026;-60
2023/10/03 12:19:41;;;;;;;9.35;3.20;;;;;;;;;;6077838;23;20026;-60
2023/10/03 12:22:28;;;;;;;10.30;2.90;;;;;;;;;;6080275;23;20520;-60
2023/10/03 12:25:24;;;;;;;11.90;3.40;;;;;;;;;;6082930;23;20034;-60
2023/10/03 12:28:17;;;;;;;16.75;3.80;;;;;;;;;;6081055;23;20652;-61
2023/10/03 12:31:05;;;;;;;11.45;3.50;;;;;;;;;;6081429;23;20026;-61
2023/10/03 12:34:01;;;;;;;9.18;3.47;;;;;;;;;;6080993;23;20755;-61
2023/10/03 12:36:52;;;;;;;15.65;3.90;;;;;;;;;;6080338;23;20065;-61
2023/10/03 12:39:41;;;;;;;11.50;3.20;;;;;;;;;;6084471;23;20109;-61
2023/10/03 12:42:33;;;;;;;10.15;3.20;;;;;;;;;;6083174;23;20026;-60
2023/10/03 12:45:21;;;;;;;11.52;3.45;;;;;;;;;;6081974;23;20034;-59
2023/10/03 12:48:15;;;;;;;14.02;3.38;;;;;;;;;;6082321;23;20030;-59
2023/10/03 12:51:02;;;;;;;10.05;3.25;;;;;;;;;;6083847;23;20150;-59
2023/10/03 12:53:56;;;;;;;11.65;3.35;;;;;;;;;;6083734;23;20465;-58
2023/10/03 12:56:43;;;;;;;8.13;3.22;;;;;;;;;;6082239;23;20680;-59
2023/10/03 12:59:37;;;;;;;9.18;3.55;;;;;;;;;;6081077;23;20571;-59
2023/10/03 13:02:25;;;;;;;12.18;3.50;;;;;;;;;;6082571;23;20238;-65
2023/10/03 13:05:23;;;;;;;7.78;3.70;;;;;;;;;;6080355;23;20050;-50
2023/10/03 13:08:10;;;;;;;14.27;3.70;;;;;;;;;;6083105;23;20188;-52
2023/10/03 13:11:05;;;;;;;8.32;3.38;;;;;;;;;;6082567;23;20098;-47
2023/10/03 13:13:51;;;;;;;12.13;3.83;;;;;;;;;;6084800;23;20037;-48
2023/10/03 13:16:45;;;;;;;6.70;3.50;;;;;;;;;;6080868;23;20023;-47
2023/10/03 13:19:39;;;;;;;8.50;3.42;;;;;;;;;;6082542;23;20102;-47
2023/10/03 13:22:32;;;;;;;9.98;3.47;;;;;;;;;;6082744;23;20042;-64
2023/10/03 13:25:20;;;;;;;10.02;3.63;;;;;;;;;;6079109;23;20051;-64
2023/10/03 13:28:14;;;;;;;9.65;3.33;;;;;;;;;;6080797;23;20026;-64
2023/10/03 13:31:00;;;;;;;10.82;3.97;;;;;;;;;;6082797;23;20081;-65
2023/10/03 13:33:54;;;;;;;17.00;4.13;;;;;;;;;;6080894;23;20790;-64
2023/10/03 13:36:41;;;;;;;12.07;3.55;;;;;;;;;;6083541;23;20023;-65
2023/10/03 13:39:35;;;;;;;9.05;4.03;;;;;;;;;;6083579;23;20027;-59
2023/10/03 13:42:22;;;;;;;12.88;4.35;;;;;;;;;;6080526;23;20034;-48
2023/10/03 13:45:23;;;;;;;16.70;3.92;;;;;;;;;;6079876;23;20030;-53
2023/10/03 13:48:16;;;;;;;9.60;3.70;;;;;;;;;;6082756;23;20105;-48
2023/10/03 13:51:03;;;;;;;12.70;3.70;;;;;;;;;;6081671;23;20461;-46
2023/10/03 13:53:57;;;;;;;10.43;3.30;;;;;;;;;;6081275;23;20043;-51
2023/10/03 13:56:45;;;;;;;16.10;4.03;;;;;;;;;;6082968;23;20029;-56
2023/10/03 13:59:39;;;;;;;9.63;3.58;;;;;;;;;;6081108;23;20074;-64
2023/10/03 14:02:26;;;;;;;14.17;4.43;;;;;;;;;;6081367;23;20022;-64
2023/10/03 14:05:21;;;;;;;8.95;3.67;;;;;;;;;;6078653;23;20398;-65
2023/10/03 14:08:08;;;;;;;14.30;3.67;;;;;;;;;;6083921;23;20537;-64
2023/10/03 14:11:02;;;;;;;13.88;3.83;;;;;;;;;;6080332;23;20055;-64
2023/10/03 14:13:56;;;;;;;12.57;3.45;;;;;;;;;;6078193;23;20028;-59
2023/10/03 14:16:56;;;;;;;9.43;3.25;;;;;;;;;;6080677;23;20026;-60
2023/10/03 14:19:51;;;;;;;13.23;3.92;;;;;;;;;;6076366;23;20389;-60
2023/10/03 14:22:41;;;;;;;9.05;3.80;;;;;;;;;;6078030;23;20026;-60
2023/10/03 14:25:35;;;;;;;11.20;3.72;;;;;;;;;;6079590;23;20030;-59
2023/10/03 14:28:23;;;;;;;10.90;4.38;;;;;;;;;;6077548;23;20030;-61
2023/10/03 14:31:16;;;;;;;12.85;3.60;;;;;;;;;;6076606;23;20026;-60
2023/10/03 14:33:43;;;;;;;;;;;;;;;;;;6081942;23;20057;-48
2023/10/03 14:36:38;;;;;;;10.90;3.45;;;;;;;;;;6082237;23;19918;-59
2023/10/03 14:39:46;;;;;;;12.20;3.75;;;;;;;;;;6080463;23;20591;-59
2023/10/03 14:42:40;;;;;;;10.98;3.63;;;;;;;;;;6077083;23;20920;-59
2023/10/03 14:45:28;;;;;;;17.25;3.60;;;;;;;;;;6079711;23;20026;-59
2023/10/03 14:48:24;;;;;;;15.57;4.00;;;;;;;;;;6080127;23;20413;-58
2023/10/03 14:51:08;;;;;;;15.25;3.60;;;;;;;;;;6080738;23;20062;-59
2023/10/03 14:54:02;;;;;;;10.70;3.72;;;;;;;;;;6079415;23;20031;-61
2023/10/03 14:56:50;;;;;;;10.02;3.47;;;;;;;;;;6078292;23;20469;-60
2023/10/03 14:59:24;;;;;;;14.98;3.42;;;;;;;;;;6078149;23;20026;-60
2023/10/03 15:01:55;;;;;;;;;;;;;;;;;;6080645;23;20030;-60
2023/10/03 15:04:49;;;;;;;10.05;3.42;;;;;;;;;;6082495;23;20670;-60
2023/10/03 15:07:36;;;;;;;12.93;3.95;;;;;;;;;;6080537;23;20026;-61
2023/10/03 15:10:30;;;;;;;14.07;4.13;;;;;;;;;;6080641;23;20548;-57
2023/10/03 15:13:16;;;;;;;11.00;4.07;;;;;;;;;;6077932;23;20099;-60
2023/10/03 15:16:10;;;;;;;16.98;4.13;;;;;;;;;;6081674;23;20022;-59
2023/10/03 15:18:37;;;;;;;;;;;;;;;;;;6074571;23;20176;-60
2023/10/03 15:21:12;;;;;;;10.40;4.13;;;;;;;;;;6049933;23;19917;-60
2023/10/03 15:23:46;;;;;;;15.82;4.03;;;;;;;;;;6052332;23;20481;-60
2023/10/03 15:26:13;;;;;;;11.50;4.18;;;;;;;;;;6053741;23;20023;-59
2023/10/03 15:28:41;;;;;;;10.00;3.60;;;;;;;;;;6053866;23;20030;-52
2023/10/03 15:31:36;;;;;;;14.02;4.32;;;;;;;;;;6049384;23;20087;-59
2023/10/03 15:34:03;;;;;;;17.75;4.15;;;;;;;;;;6051368;23;20027;-59
2023/10/03 15:36:35;;;;;;;;;;;;;;;;;;6052386;23;20022;-59
2023/10/03 15:39:28;;;;;;;10.68;4.13;;;;;;;;;;6053892;23;19921;-58
2023/10/03 15:42:20;;;;;;;13.00;4.30;;;;;;;;;;6050442;23;20106;-59
2023/10/03 15:45:12;;;;;;;10.02;3.53;;;;;;;;;;6051458;23;20023;-60
2023/10/03 15:48:01;;;;;;;10.63;4.03;;;;;;;;;;6049530;23;20026;-60
2023/10/03 15:50:55;;;;;;;16.85;4.00;;;;;;;;;;6048250;23;20026;-64
2023/10/03 15:53:44;;;;;;;10.00;4.07;;;;;;;;;;6050624;23;20026;-65
2023/10/03 15:56:37;;;;;;;10.98;3.95;;;;;;;;;;6048249;23;20094;-64
2023/10/03 15:59:24;;;;;;;9.82;3.92;;;;;;;;;;6051782;23;20031;-64
2023/10/03 16:02:17;;;;;;;10.15;4.05;;;;;;;;;;6055037;23;20038;-64
2023/10/03 16:05:13;;;;;;;8.90;3.60;;;;;;;;;;6053570;23;20555;-47
2023/10/03 16:07:59;;;;;;;10.13;3.95;;;;;;;;;;6051242;23;20027;-65
2023/10/03 16:10:53;;;;;;;9.30;3.88;;;;;;;;;;6052620;23;20469;-65
2023/10/03 16:13:40;;;;;;;10.68;3.40;;;;;;;;;;6053934;23;20035;-65
2023/10/03 16:16:36;;;;;;;14.07;4.55;;;;;;;;;;6054924;23;20031;-65
2023/10/03 16:19:27;;;;;;;13.00;4.28;;;;;;;;;;6068244;23;20702;-65
2023/10/03 16:22:21;;;;;;;12.48;4.88;;;;;;;;;;6084436;23;20038;-54
2023/10/03 16:25:09;;;;;;;12.80;4.10;;;;;;;;;;6082881;23;20027;-59
2023/10/03 16:28:02;;;;;;;10.70;4.03;;;;;;;;;;6081278;23;20503;-52
2023/10/03 16:30:56;;;;;;;8.77;3.80;;;;;;;;;;6085929;23;20030;-53
2023/10/03 16:33:44;;;;;;;9.30;4.50;;;;;;;;;;6078251;23;20023;-48
2023/10/03 16:36:38;;;;;;;12.52;4.47;;;;;;;;;;6082469;23;20585;-51
2023/10/03 16:39:25;;;;;;;16.77;5.00;;;;;;;;;;6078698;23;20034;-50
2023/10/03 16:42:19;;;;;;;10.85;4.15;;;;;;;;;;6080430;23;20395;-49
2023/10/03 16:45:09;;;;;;;14.52;4.15;;;;;;;;;;6078466;23;20026;-60
2023/10/03 16:48:00;;;;;;;9.02;4.03;;;;;;;;;;6083921;23;20078;-60
2023/10/03 16:50:49;;;;;;;15.93;4.35;;;;;;;;;;6080836;23;20105;-59
2023/10/03 16:53:43;;;;;;;10.27;4.25;;;;;;;;;;6083457;23;20082;-59
2023/10/03 16:56:30;;;;;;;18.73;5.18;;;;;;;;;;6082675;23;20023;-59